createdAt,value
2022-12-18T00:01:27.932Z,90.99
2022-12-18T00:03:55.065Z,91.12
2022-12-18T00:06:21.730Z,90.61
2022-12-18T00:08:48.159Z,90.60
2022-12-18T00:11:16.312Z,90.06
2022-12-18T00:13:42.975Z,90.70
2022-12-18T00:16:11.142Z,89.79
2022-12-18T00:18:37.949Z,89.92
2022-12-18T00:21:06.209Z,90.34
2022-12-18T00:23:33.330Z,89.81
2022-12-18T00:26:00.695Z,90.16
2022-12-18T00:28:27.132Z,89.50
2022-12-18T00:31:04.350Z,89.85
2022-12-18T00:33:30.889Z,90.42
2022-12-18T00:36:07.874Z,89.82
2022-12-18T00:38:34.789Z,90.17
2022-12-18T00:41:01.170Z,90.35
2022-12-18T00:43:27.644Z,89.94
2022-12-18T00:45:54.117Z,90.59
2022-12-18T00:48:20.601Z,90.68
2022-12-18T00:50:48.639Z,90.16
2022-12-18T00:53:15.090Z,90.12
2022-12-18T00:55:41.753Z,90.38
2022-12-18T00:58:08.833Z,90.09
2022-12-18T01:00:35.275Z,90.26
2022-12-18T01:03:01.748Z,90.23
2022-12-18T01:05:28.262Z,89.96
2022-12-18T01:07:54.907Z,89.81
2022-12-18T01:10:21.299Z,89.93
2022-12-18T01:12:47.674Z,90.63
2022-12-18T01:15:14.484Z,90.26
2022-12-18T01:17:40.879Z,89.63
2022-12-18T01:20:07.811Z,89.75
2022-12-18T01:22:34.179Z,89.91
2022-12-18T01:25:00.572Z,89.97
2022-12-18T01:27:27.114Z,89.62
2022-12-18T01:29:53.586Z,89.55
2022-12-18T01:32:20.400Z,89.55
2022-12-18T01:34:46.935Z,89.74
2022-12-18T01:37:13.344Z,89.80
2022-12-18T01:39:39.792Z,89.61
2022-12-18T01:42:12.035Z,89.97
2022-12-18T01:45:07.026Z,89.41
2022-12-18T01:47:43.914Z,90.34
2022-12-18T01:50:21.135Z,89.64
2022-12-18T01:52:59.254Z,90.22
2022-12-18T01:55:27.408Z,90.32
2022-12-18T01:57:55.218Z,89.97
2022-12-18T02:00:22.077Z,89.87
2022-12-18T02:02:48.589Z,90.08
2022-12-18T02:05:17.709Z,90.13
2022-12-18T02:08:06.250Z,90.02
2022-12-18T02:10:41.424Z,89.45
2022-12-18T02:13:15.326Z,89.61
2022-12-18T02:15:43.401Z,89.75
2022-12-18T02:18:20.733Z,89.44
2022-12-18T02:21:19.375Z,89.55
2022-12-18T02:23:53.619Z,89.59
2022-12-18T02:26:31.103Z,89.40
2022-12-18T02:29:09.292Z,89.52
2022-12-18T02:31:37.921Z,89.12
2022-12-18T02:34:05.121Z,89.71
2022-12-18T02:36:31.497Z,89.23
2022-12-18T02:38:58.058Z,89.46
2022-12-18T02:41:24.449Z,90.09
2022-12-18T02:43:56.469Z,89.65
2022-12-18T02:46:28.942Z,89.53
2022-12-18T02:48:58.650Z,89.60
2022-12-18T02:51:30.009Z,89.33
2022-12-18T02:54:20.929Z,89.89
2022-12-18T02:56:52.737Z,90.26
2022-12-18T02:59:22.368Z,89.63
2022-12-18T03:01:53.379Z,89.27
2022-12-18T03:04:28.903Z,89.55
2022-12-18T03:06:56.966Z,89.29
2022-12-18T03:09:45.925Z,89.73
2022-12-18T03:12:33.335Z,89.32
2022-12-18T03:15:20.609Z,89.47
2022-12-18T03:17:51.801Z,89.41
2022-12-18T03:20:19.881Z,89.51
2022-12-18T03:22:47.655Z,89.42
2022-12-18T03:25:14.660Z,89.69
2022-12-18T03:27:43.509Z,89.27
2022-12-18T03:30:10.858Z,89.35
2022-12-18T03:32:45.575Z,89.53
2022-12-18T03:35:12.490Z,89.07
2022-12-18T03:37:38.882Z,89.18
2022-12-18T03:40:06.002Z,89.64
2022-12-18T03:42:42.534Z,89.43
2022-12-18T03:45:27.576Z,89.46
2022-12-18T03:48:00.783Z,89.46
2022-12-18T03:50:30.531Z,89.32
2022-12-18T03:53:12.185Z,88.98
2022-12-18T03:55:38.557Z,89.87
2022-12-18T03:58:05.014Z,89.46
2022-12-18T04:00:31.421Z,89.71
2022-12-18T04:02:58.011Z,89.70
2022-12-18T04:05:26.542Z,89.31
2022-12-18T04:07:52.978Z,89.51
2022-12-18T04:10:19.442Z,89.17
2022-12-18T04:12:45.877Z,89.37
2022-12-18T04:15:13.054Z,89.57
2022-12-18T04:17:39.720Z,89.64
2022-12-18T04:20:06.569Z,89.45
2022-12-18T04:22:32.978Z,89.65
2022-12-18T04:24:59.348Z,88.77
2022-12-18T04:27:25.729Z,89.59
2022-12-18T04:29:52.118Z,89.35
2022-12-18T04:32:18.491Z,89.30
2022-12-18T04:34:44.898Z,90.10
2022-12-18T04:37:11.269Z,89.17
2022-12-18T04:39:37.690Z,90.07
2022-12-18T04:42:04.095Z,90.00
2022-12-18T04:44:30.483Z,89.68
2022-12-18T04:46:56.879Z,89.49
2022-12-18T04:49:23.285Z,89.40
2022-12-18T04:51:49.694Z,88.77
2022-12-18T04:54:16.094Z,89.53
2022-12-18T04:56:42.470Z,89.90
2022-12-18T04:59:08.879Z,89.94
2022-12-18T05:01:35.436Z,89.41
2022-12-18T05:04:02.793Z,89.57
2022-12-18T05:06:29.295Z,89.83
2022-12-18T05:08:55.702Z,90.00
2022-12-18T05:11:22.075Z,90.01
2022-12-18T05:13:48.459Z,89.92
2022-12-18T05:16:14.944Z,89.91
2022-12-18T05:18:41.558Z,89.88
2022-12-18T05:21:07.943Z,89.75
2022-12-18T05:23:34.312Z,90.24
2022-12-18T05:26:02.101Z,90.48
2022-12-18T05:28:29.513Z,90.27
2022-12-18T05:30:57.828Z,90.50
2022-12-18T05:33:25.235Z,89.56
2022-12-18T05:35:55.619Z,89.92
2022-12-18T05:38:22.320Z,89.72
2022-12-18T05:40:49.467Z,89.52
2022-12-18T05:43:20.964Z,90.40
2022-12-18T05:45:47.912Z,89.51
2022-12-18T05:48:14.310Z,89.56
2022-12-18T05:50:42.013Z,89.46
2022-12-18T05:53:08.407Z,90.35
2022-12-18T05:55:38.874Z,90.23
2022-12-18T05:58:05.450Z,90.56
2022-12-18T06:00:32.526Z,89.37
2022-12-18T06:02:59.553Z,90.00
2022-12-18T06:05:26.300Z,90.23
2022-12-18T06:07:52.718Z,89.25
2022-12-18T06:10:19.983Z,89.60
2022-12-18T06:12:46.362Z,89.80
2022-12-18T06:15:13.981Z,89.57
2022-12-18T06:17:40.603Z,90.30
2022-12-18T06:20:07.357Z,89.50
2022-12-18T06:22:33.730Z,89.56
2022-12-18T06:25:00.130Z,88.72
2022-12-18T06:27:26.574Z,89.24
2022-12-18T06:29:52.982Z,88.81
2022-12-18T06:32:19.350Z,90.11
2022-12-18T06:34:45.953Z,89.10
2022-12-18T06:37:12.349Z,89.78
2022-12-18T06:39:38.796Z,89.96
2022-12-18T06:42:05.384Z,89.59
2022-12-18T06:44:31.752Z,89.85
2022-12-18T06:46:58.148Z,89.94
2022-12-18T06:49:30.152Z,89.90
2022-12-18T06:51:56.940Z,89.35
2022-12-18T06:54:23.314Z,89.87
2022-12-18T06:56:50.396Z,90.07
2022-12-18T06:59:17.469Z,89.73
2022-12-18T07:01:44.005Z,89.69
2022-12-18T07:04:10.517Z,90.20
2022-12-18T07:06:36.917Z,90.50
2022-12-18T07:09:03.310Z,89.60
2022-12-18T07:11:29.718Z,89.89
2022-12-18T07:13:56.104Z,89.77
2022-12-18T07:16:25.284Z,90.57
2022-12-18T07:18:53.021Z,89.46
2022-12-18T07:21:19.959Z,90.46
2022-12-18T07:23:46.349Z,90.27
2022-12-18T07:26:13.466Z,90.61
2022-12-18T07:28:40.337Z,90.33
2022-12-18T07:31:07.789Z,90.62
2022-12-18T07:33:34.400Z,90.38
2022-12-18T07:36:04.765Z,89.45
2022-12-18T07:38:31.863Z,90.39
2022-12-18T07:41:06.779Z,89.91
2022-12-18T07:43:33.857Z,90.53
2022-12-18T07:46:00.253Z,89.89
2022-12-18T07:48:26.722Z,90.95
2022-12-18T07:50:53.310Z,90.91
2022-12-18T07:53:19.781Z,90.25
2022-12-18T07:56:17.940Z,90.78
2022-12-18T07:58:33.079Z,90.69
2022-12-18T08:01:08.002Z,90.49
2022-12-18T08:03:34.449Z,90.50
2022-12-18T08:06:01.830Z,90.48
2022-12-18T08:08:28.881Z,90.56
2022-12-18T08:10:55.256Z,90.48
2022-12-18T08:13:21.704Z,90.93
2022-12-18T08:16:02.342Z,90.47
2022-12-18T08:18:28.851Z,90.14
2022-12-18T08:20:55.728Z,90.39
2022-12-18T08:23:22.333Z,89.91
2022-12-18T08:25:48.778Z,90.43
2022-12-18T08:28:15.203Z,90.17
2022-12-18T08:30:41.613Z,90.52
2022-12-18T08:33:08.261Z,90.48
2022-12-18T08:35:42.492Z,90.35
2022-12-18T08:38:11.952Z,89.88
2022-12-18T08:40:38.336Z,89.97
2022-12-18T08:43:04.768Z,90.22
2022-12-18T08:45:34.658Z,89.97
2022-12-18T08:48:01.121Z,89.81
2022-12-18T08:50:27.514Z,89.65
2022-12-18T08:52:53.897Z,90.28
2022-12-18T08:55:20.315Z,89.71
2022-12-18T08:57:49.706Z,89.78
2022-12-18T09:00:16.807Z,90.29
2022-12-18T09:02:43.752Z,90.14
2022-12-18T09:05:10.215Z,90.18
2022-12-18T09:07:36.899Z,90.24
2022-12-18T09:10:03.509Z,90.40
2022-12-18T09:12:29.887Z,90.09
2022-12-18T09:14:56.299Z,89.85
2022-12-18T09:17:22.992Z,90.39
2022-12-18T09:19:49.503Z,89.99
2022-12-18T09:22:15.894Z,89.30
2022-12-18T09:24:42.329Z,89.90
2022-12-18T09:27:08.701Z,89.48
2022-12-18T09:29:35.121Z,89.44
2022-12-18T09:32:01.489Z,89.78
2022-12-18T09:34:27.886Z,89.38
2022-12-18T09:36:54.308Z,89.13
2022-12-18T09:39:22.792Z,89.20
2022-12-18T09:41:54.379Z,89.00
2022-12-18T09:44:24.702Z,89.30
2022-12-18T09:47:27.274Z,89.54
2022-12-18T09:49:59.316Z,89.35
2022-12-18T09:52:34.571Z,89.24
2022-12-18T09:55:37.632Z,88.88
2022-12-18T09:58:12.374Z,88.33
2022-12-18T10:00:38.921Z,87.33
2022-12-18T10:03:12.410Z,87.65
2022-12-18T10:05:57.096Z,88.33
2022-12-18T10:08:33.402Z,87.94
2022-12-18T10:11:16.234Z,87.46
2022-12-18T10:13:49.798Z,87.29
2022-12-18T10:16:20.964Z,86.93
2022-12-18T10:19:13.404Z,86.71
2022-12-18T10:21:42.918Z,86.16
2022-12-18T10:24:16.148Z,86.22
2022-12-18T10:26:42.567Z,85.67
2022-12-18T10:29:16.011Z,84.91
2022-12-18T10:31:42.518Z,84.95
2022-12-18T10:34:12.595Z,84.89
2022-12-18T10:36:38.985Z,84.62
2022-12-18T10:39:22.916Z,84.55
2022-12-18T10:41:50.607Z,84.26
2022-12-18T10:44:18.182Z,84.11
2022-12-18T10:46:49.417Z,83.93
2022-12-18T10:49:27.343Z,83.71
2022-12-18T10:52:25.460Z,83.29
2022-12-18T10:54:53.583Z,83.66
2022-12-18T10:57:39.325Z,83.50
2022-12-18T11:00:29.021Z,82.82
2022-12-18T11:02:55.687Z,82.57
2022-12-18T11:05:33.597Z,81.87
2022-12-18T11:08:00.551Z,81.92
2022-12-18T11:10:30.051Z,81.75
2022-12-18T11:12:56.794Z,81.16
2022-12-18T11:15:28.641Z,81.38
2022-12-18T11:17:55.084Z,81.28
2022-12-18T11:20:31.750Z,81.34
2022-12-18T11:23:13.357Z,81.03
2022-12-18T11:25:39.860Z,81.00
2022-12-18T11:28:40.028Z,80.79
2022-12-18T11:31:33.051Z,79.82
2022-12-18T11:34:29.107Z,80.08
2022-12-18T11:36:57.346Z,80.22
2022-12-18T11:39:45.838Z,80.18
2022-12-18T11:42:17.862Z,80.11
2022-12-18T11:44:58.395Z,79.80
2022-12-18T11:47:40.334Z,79.64
2022-12-18T11:50:11.575Z,79.88
2022-12-18T11:52:39.669Z,79.46
2022-12-18T11:55:12.639Z,79.20
2022-12-18T11:58:04.150Z,79.32
2022-12-18T12:00:30.557Z,79.06
2022-12-18T12:03:09.077Z,78.87
2022-12-18T12:05:44.337Z,78.77
2022-12-18T12:08:32.503Z,78.35
2022-12-18T12:11:11.687Z,78.08
2022-12-18T12:14:13.566Z,78.34
2022-12-18T12:17:08.980Z,78.53
2022-12-18T12:19:54.037Z,78.27
2022-12-18T12:22:33.963Z,78.25
2022-12-18T12:25:22.081Z,78.21
2022-12-18T12:28:13.670Z,78.12
2022-12-18T12:30:53.238Z,78.04
2022-12-18T12:33:19.516Z,77.99
2022-12-18T12:36:13.683Z,78.05
2022-12-18T12:39:02.503Z,77.83
2022-12-18T12:41:31.516Z,77.63
2022-12-18T12:43:59.399Z,78.01
2022-12-18T12:46:26.163Z,77.73
2022-12-18T12:48:54.239Z,77.38
2022-12-18T12:51:22.712Z,77.17
2022-12-18T12:53:49.832Z,77.16
2022-12-18T12:56:20.391Z,76.73
2022-12-18T12:58:59.334Z,76.92
2022-12-18T13:01:27.764Z,76.32
2022-12-18T13:04:13.792Z,76.44
2022-12-18T13:06:47.608Z,76.79
2022-12-18T13:09:14.562Z,78.20
2022-12-18T13:11:42.696Z,74.97
2022-12-18T13:14:20.806Z,73.66
2022-12-18T13:16:47.187Z,72.70
2022-12-18T13:19:26.419Z,72.84
2022-12-18T13:21:54.386Z,72.50
2022-12-18T13:24:26.395Z,73.22
2022-12-18T13:26:52.838Z,73.27
2022-12-18T13:29:44.856Z,73.72
2022-12-18T13:32:24.914Z,74.16
2022-12-18T13:35:21.877Z,74.41
2022-12-18T13:37:53.054Z,74.72
2022-12-18T13:40:37.942Z,74.74
2022-12-18T13:43:20.556Z,74.60
2022-12-18T13:45:59.631Z,74.75
2022-12-18T13:48:26.759Z,75.50
2022-12-18T13:51:01.353Z,75.38
2022-12-18T13:53:33.958Z,75.04
2022-12-18T13:56:00.374Z,75.31
2022-12-18T13:58:26.909Z,75.53
2022-12-18T14:00:53.706Z,75.58
2022-12-18T14:03:26.756Z,76.05
2022-12-18T14:05:54.910Z,75.83
2022-12-18T14:08:21.351Z,76.17
2022-12-18T14:10:49.975Z,76.39
2022-12-18T14:13:24.024Z,76.69
2022-12-18T14:15:50.715Z,76.60
2022-12-18T14:18:34.835Z,76.95
2022-12-18T14:21:02.087Z,77.05
2022-12-18T14:23:40.003Z,77.31
2022-12-18T14:26:29.609Z,77.66
2022-12-18T14:29:00.817Z,77.41
2022-12-18T14:31:30.521Z,77.56
2022-12-18T14:33:56.988Z,77.71
2022-12-18T14:36:25.037Z,77.53
2022-12-18T14:38:57.983Z,77.94
2022-12-18T14:41:24.656Z,78.21
2022-12-18T14:43:52.082Z,78.68
2022-12-18T14:46:33.976Z,78.55
2022-12-18T14:49:02.071Z,78.88
2022-12-18T14:51:29.774Z,79.06
2022-12-18T14:54:03.975Z,78.95
2022-12-18T14:56:37.314Z,79.20
2022-12-18T14:59:13.439Z,79.56
2022-12-18T15:01:40.519Z,79.24
2022-12-18T15:04:24.374Z,79.53
2022-12-18T15:06:51.618Z,80.23
2022-12-18T15:09:27.209Z,80.54
2022-12-18T15:12:00.902Z,80.16
2022-12-18T15:14:34.474Z,80.33
2022-12-18T15:17:01.234Z,80.64
2022-12-18T15:19:35.234Z,80.92
2022-12-18T15:22:06.312Z,80.66
2022-12-18T15:24:33.268Z,80.80
2022-12-18T15:27:00.214Z,80.99
2022-12-18T15:29:26.618Z,81.61
2022-12-18T15:32:03.794Z,81.09
2022-12-18T15:34:30.334Z,81.39
2022-12-18T15:36:56.805Z,81.43
2022-12-18T15:39:23.226Z,81.68
2022-12-18T15:41:49.661Z,81.89
2022-12-18T15:44:25.170Z,81.77
2022-12-18T15:46:51.592Z,81.80
2022-12-18T15:49:17.991Z,81.85
2022-12-18T15:51:44.407Z,81.68
2022-12-18T15:54:14.534Z,82.17
2022-12-18T15:56:41.421Z,81.89
2022-12-18T15:59:17.831Z,82.37
2022-12-18T16:01:48.781Z,82.48
2022-12-18T16:04:16.570Z,82.53
2022-12-18T16:07:12.660Z,82.45
2022-12-18T16:09:29.586Z,82.53
2022-12-18T16:11:55.983Z,82.92
2022-12-18T16:14:40.662Z,83.12
2022-12-18T16:17:10.174Z,82.70
2022-12-18T16:19:36.592Z,83.35
2022-12-18T16:22:02.982Z,83.02
2022-12-18T16:24:30.978Z,83.41
2022-12-18T16:27:00.521Z,83.40
2022-12-18T16:29:27.746Z,83.46
2022-12-18T16:32:00.173Z,83.73
2022-12-18T16:34:28.947Z,83.81
2022-12-18T16:37:04.947Z,83.60
2022-12-18T16:39:32.878Z,83.92
2022-12-18T16:42:02.655Z,83.80
2022-12-18T16:44:33.225Z,84.36
2022-12-18T16:46:59.620Z,83.69
2022-12-18T16:49:26.096Z,84.10
2022-12-18T16:51:52.514Z,84.38
2022-12-18T16:54:19.629Z,83.99
2022-12-18T16:56:48.498Z,84.01
2022-12-18T16:59:14.917Z,84.05
2022-12-18T17:01:42.245Z,84.69
2022-12-18T17:04:09.258Z,84.68
2022-12-18T17:06:39.991Z,84.87
2022-12-18T17:09:07.619Z,84.71
2022-12-18T17:11:34.446Z,84.84
2022-12-18T17:14:05.535Z,84.50
2022-12-18T17:16:32.051Z,84.81
2022-12-18T17:19:01.892Z,84.79
2022-12-18T17:21:31.551Z,84.59
2022-12-18T17:24:00.329Z,84.47
2022-12-18T17:26:26.746Z,84.94
2022-12-18T17:28:53.146Z,85.13
2022-12-18T17:31:21.585Z,85.51
2022-12-18T17:33:48.576Z,85.00
2022-12-18T17:36:15.125Z,84.82
2022-12-18T17:38:41.519Z,84.96
2022-12-18T17:41:08.679Z,84.88
2022-12-18T17:43:35.180Z,84.84
2022-12-18T17:46:05.967Z,85.05
2022-12-18T17:48:34.699Z,85.10
2022-12-18T17:51:05.246Z,84.50
2022-12-18T17:53:31.658Z,84.56
2022-12-18T17:55:58.691Z,84.78
2022-12-18T17:58:25.115Z,84.94
2022-12-18T18:00:51.555Z,84.98
2022-12-18T18:03:18.147Z,85.13
2022-12-18T18:05:44.756Z,85.06
2022-12-18T18:08:11.131Z,84.93
2022-12-18T18:10:38.002Z,85.06
2022-12-18T18:13:05.386Z,84.98
2022-12-18T18:15:31.769Z,85.04
2022-12-18T18:17:58.183Z,84.91
2022-12-18T18:20:24.592Z,84.97
2022-12-18T18:22:51.107Z,84.61
2022-12-18T18:25:17.653Z,84.61
2022-12-18T18:27:44.496Z,84.81
2022-12-18T18:30:13.907Z,84.98
2022-12-18T18:32:40.330Z,84.65
2022-12-18T18:35:15.707Z,84.86
2022-12-18T18:37:51.195Z,84.70
2022-12-18T18:40:18.219Z,84.51
2022-12-18T18:42:44.854Z,84.05
2022-12-18T18:45:11.288Z,84.07
2022-12-18T18:47:37.699Z,84.13
2022-12-18T18:50:04.504Z,84.31
2022-12-18T18:52:30.905Z,83.73
2022-12-18T18:55:12.929Z,83.76
2022-12-18T18:57:40.197Z,84.02
2022-12-18T19:00:07.416Z,83.76
2022-12-18T19:02:34.135Z,83.43
2022-12-18T19:05:00.637Z,83.47
2022-12-18T19:07:30.244Z,83.23
2022-12-18T19:09:57.126Z,83.16
2022-12-18T19:12:25.165Z,82.95
2022-12-18T19:14:53.898Z,82.91
2022-12-18T19:17:23.699Z,82.76
2022-12-18T19:19:54.432Z,83.38
2022-12-18T19:22:20.819Z,82.75
2022-12-18T19:24:47.221Z,82.68
2022-12-18T19:27:13.601Z,82.95
2022-12-18T19:29:40.070Z,82.82
2022-12-18T19:32:06.546Z,82.64
2022-12-18T19:34:33.074Z,82.70
2022-12-18T19:37:00.237Z,82.50
2022-12-18T19:39:26.910Z,82.06
2022-12-18T19:41:53.786Z,81.92
2022-12-18T19:44:20.705Z,82.44
2022-12-18T19:46:49.410Z,82.38
2022-12-18T19:49:18.130Z,81.94
2022-12-18T19:51:45.030Z,81.94
2022-12-18T19:54:16.987Z,81.77
2022-12-18T19:56:46.013Z,81.56
2022-12-18T19:59:12.810Z,81.69
2022-12-18T20:01:41.857Z,81.72
2022-12-18T20:04:17.166Z,81.63
2022-12-18T20:07:11.242Z,81.67
2022-12-18T20:09:37.804Z,81.39
2022-12-18T20:12:06.220Z,81.05
2022-12-18T20:14:32.655Z,80.74
2022-12-18T20:16:59.130Z,80.95
2022-12-18T20:19:26.961Z,80.67
2022-12-18T20:21:54.662Z,80.75
2022-12-18T20:24:21.078Z,80.73
2022-12-18T20:26:47.987Z,80.81
2022-12-18T20:29:15.525Z,80.64
2022-12-18T20:31:41.968Z,80.73
2022-12-18T20:34:08.489Z,80.72
2022-12-18T20:36:36.254Z,81.22
2022-12-18T20:39:05.417Z,80.55
2022-12-18T20:41:38.325Z,80.72
2022-12-18T20:44:22.236Z,80.70
2022-12-18T20:46:51.925Z,80.43
2022-12-18T20:49:18.339Z,80.37
2022-12-18T20:51:44.762Z,80.38
2022-12-18T20:54:12.028Z,80.18
2022-12-18T20:56:38.558Z,80.19
2022-12-18T20:59:04.962Z,80.28
2022-12-18T21:01:31.535Z,80.44
2022-12-18T21:03:57.987Z,80.31
2022-12-18T21:06:28.058Z,79.89
2022-12-18T21:08:57.071Z,79.71
2022-12-18T21:11:30.769Z,80.07
2022-12-18T21:13:57.387Z,80.19
2022-12-18T21:16:24.994Z,79.94
2022-12-18T21:18:52.614Z,80.17
2022-12-18T21:21:26.612Z,80.62
2022-12-18T21:23:53.808Z,79.93
2022-12-18T21:26:26.991Z,79.93
2022-12-18T21:28:59.204Z,79.51
2022-12-18T21:31:27.366Z,79.19
2022-12-18T21:33:58.328Z,79.78
2022-12-18T21:36:28.687Z,79.77
2022-12-18T21:38:55.296Z,79.71
2022-12-18T21:41:23.261Z,79.97
2022-12-18T21:43:50.301Z,79.66
2022-12-18T21:46:19.088Z,79.49
2022-12-18T21:48:45.520Z,79.81
2022-12-18T21:51:11.910Z,80.14
2022-12-18T21:53:39.379Z,79.79
2022-12-18T21:56:05.913Z,79.90
2022-12-18T21:58:32.310Z,79.70
2022-12-18T22:00:58.723Z,79.54
2022-12-18T22:03:25.272Z,79.65
2022-12-18T22:06:00.775Z,79.62
2022-12-18T22:08:35.981Z,79.63
2022-12-18T22:11:06.817Z,79.43
2022-12-18T22:13:33.238Z,79.64
2022-12-18T22:15:59.691Z,79.60
2022-12-18T22:18:26.091Z,79.51
2022-12-18T22:21:01.424Z,79.25
2022-12-18T22:23:28.146Z,79.21
2022-12-18T22:25:54.675Z,79.16
2022-12-18T22:28:21.062Z,79.31
2022-12-18T22:30:47.495Z,79.15
2022-12-18T22:33:15.244Z,79.36
2022-12-18T22:35:41.699Z,79.17
2022-12-18T22:38:08.467Z,79.07
2022-12-18T22:40:34.860Z,79.16
2022-12-18T22:43:01.511Z,79.04
2022-12-18T22:45:27.965Z,79.07
2022-12-18T22:47:54.434Z,79.23
2022-12-18T22:50:20.915Z,78.91
2022-12-18T22:52:47.317Z,79.00
2022-12-18T22:55:13.746Z,78.99
2022-12-18T22:57:40.183Z,78.81
2022-12-18T23:00:13.938Z,78.39
2022-12-18T23:02:40.398Z,78.91
2022-12-18T23:05:07.154Z,78.70
2022-12-18T23:07:33.557Z,79.00
2022-12-18T23:10:00.618Z,78.88
2022-12-18T23:12:27.298Z,78.83
2022-12-18T23:14:54.067Z,78.80
2022-12-18T23:17:20.469Z,78.81
2022-12-18T23:19:49.184Z,78.65
2022-12-18T23:22:16.717Z,78.83
2022-12-18T23:24:43.090Z,78.82
2022-12-18T23:27:11.700Z,78.70
2022-12-18T23:29:38.821Z,79.04
2022-12-18T23:32:05.221Z,78.93
2022-12-18T23:34:31.613Z,78.73
2022-12-18T23:36:58.043Z,78.47
2022-12-18T23:39:29.316Z,78.50
2022-12-18T23:41:57.515Z,78.81
2022-12-18T23:44:23.898Z,78.74
2022-12-18T23:46:50.412Z,78.96
2022-12-18T23:49:16.842Z,78.89
2022-12-18T23:51:43.458Z,78.77
2022-12-18T23:54:09.979Z,79.21
2022-12-18T23:56:36.375Z,79.10
2022-12-18T23:59:02.792Z,78.92
